Ana Sayfa
METAR-TAF:

METAR-TAF

Havaalanları :

Suceava, Romanya

Enlem: 47-39N, Boylam: 026-15E, yükseklik: 351 m

Güncel hava durumu gözlemi

Rapor saat 18:00 UTC de 17 dakika önce yapıldı.
Rüzgar güneydan 5 kt
Sıcaklık 13°C
Nem 72%
Basınç 1017 hPa
Görüş mesafesi 10 km veya daha fazla
1500 m altında bulut yok ve kümülonimbus yok

METAR: LRSV 181800Z 17005KT CAVOK 13/08 Q1017

Saat: 21:17 (18:17 UTC)

Tahmin

Rapor saat 17:00 UTC de 1 saat ve 17 dakika önce yapıldı.
Ayın 18'si saat 18 UTC'den ayın 19'si saat 03 UTC'ye kadar geçerli Tahmin
Rüzgar güneydan 5 kt
Görüş mesafesi 10 km veya daha fazla
1500 m altında bulut yok ve kümülonimbus yok
Dönüşüyor
ayın 18'si saat 22 UTC'den ayın 18'si saat 24 UTC'ye kadar
Görüş mesafesi: 5000 m
Pus
Olasılık 30% :
Geçici
ayın 19'si saat 00 UTC'den ayın 19'si saat 03 UTC'ye kadar
Görüş mesafesi: 1500 m
Pus

TAF: LRSV 181700Z 1818/1903 17005KT CAVOK BECMG 1822/1824 5000 BR PROB30 TEMPO 1900/1903 1500 BR

4.000'den fazla havaalanı için hava durumu gözlemleri ve tahminleri (METAR ve TAF raporları).

Kullanılabilir istasyonlar harita üzerinde sarı ve kırmızı noktalarla gösterilir.

İstasyonun adını görmek için fareyi noktanın üzerinde gezdirin.

Sonrasında hava gözlem ve tahminlerini görmek için tıklayın.

Haritayı değiştirmek için: yaklaştırmak için siyah artı işaretli yeşil düğmeye ve uzaklaştırmak için de eksi işaretli düğmeye hızla tıklayın; bitişik haritalar için yeşil okları kullanın.


METAR-TAF: